sensor_id;sensor_type;location;lat;lon;timestamp;P1;durP1;ratioP1;P2;durP2;ratioP2
21601;SDS011;10963;50.934;4.668;2022-10-26T00:03:28;15.07;;;3.70;;
21601;SDS011;10963;50.934;4.668;2022-10-26T00:05:54;8.40;;;3.60;;
21601;SDS011;10963;50.934;4.668;2022-10-26T00:08:25;11.60;;;4.03;;
21601;SDS011;10963;50.934;4.668;2022-10-26T00:10:51;6.90;;;3.30;;
21601;SDS011;10963;50.934;4.668;2022-10-26T00:13:23;8.17;;;3.63;;
21601;SDS011;10963;50.934;4.668;2022-10-26T00:15:49;5.27;;;3.47;;
21601;SDS011;10963;50.934;4.668;2022-10-26T00:18:14;7.73;;;3.30;;
21601;SDS011;10963;50.934;4.668;2022-10-26T00:20:42;7.20;;;3.47;;
21601;SDS011;10963;50.934;4.668;2022-10-26T00:23:10;11.37;;;3.67;;
21601;SDS011;10963;50.934;4.668;2022-10-26T00:25:38;10.73;;;3.83;;
21601;SDS011;10963;50.934;4.668;2022-10-26T00:28:09;6.33;;;3.60;;
21601;SDS011;10963;50.934;4.668;2022-10-26T00:30:37;8.83;;;3.87;;
21601;SDS011;10963;50.934;4.668;2022-10-26T00:33:08;13.17;;;3.90;;
21601;SDS011;10963;50.934;4.668;2022-10-26T00:35:36;6.23;;;3.20;;
21601;SDS011;10963;50.934;4.668;2022-10-26T00:38:09;8.43;;;3.43;;
21601;SDS011;10963;50.934;4.668;2022-10-26T00:40:38;9.87;;;3.50;;
21601;SDS011;10963;50.934;4.668;2022-10-26T00:43:08;10.23;;;3.40;;
21601;SDS011;10963;50.934;4.668;2022-10-26T00:45:57;6.83;;;3.17;;
21601;SDS011;10963;50.934;4.668;2022-10-26T00:48:26;8.63;;;2.90;;
21601;SDS011;10963;50.934;4.668;2022-10-26T00:50:58;7.97;;;2.70;;
21601;SDS011;10963;50.934;4.668;2022-10-26T00:53:29;10.93;;;3.40;;
21601;SDS011;10963;50.934;4.668;2022-10-26T00:55:56;8.33;;;3.10;;
21601;SDS011;10963;50.934;4.668;2022-10-26T00:58:25;7.77;;;2.97;;
21601;SDS011;10963;50.934;4.668;2022-10-26T01:00:51;8.87;;;3.57;;
21601;SDS011;10963;50.934;4.668;2022-10-26T01:03:21;7.10;;;3.13;;
21601;SDS011;10963;50.934;4.668;2022-10-26T01:05:49;12.33;;;3.40;;
21601;SDS011;10963;50.934;4.668;2022-10-26T01:08:20;8.33;;;3.00;;
21601;SDS011;10963;50.934;4.668;2022-10-26T01:10:52;9.67;;;3.50;;
21601;SDS011;10963;50.934;4.668;2022-10-26T01:13:22;8.53;;;3.17;;
21601;SDS011;10963;50.934;4.668;2022-10-26T01:18:53;8.97;;;2.83;;
21601;SDS011;10963;50.934;4.668;2022-10-26T01:21:34;6.70;;;3.03;;
21601;SDS011;10963;50.934;4.668;2022-10-26T01:35:29;9.10;;;3.07;;
21601;SDS011;10963;50.934;4.668;2022-10-26T01:40:33;10.30;;;3.13;;
21601;SDS011;10963;50.934;4.668;2022-10-26T01:43:05;6.07;;;3.00;;
21601;SDS011;10963;50.934;4.668;2022-10-26T01:45:36;6.80;;;2.87;;
21601;SDS011;10963;50.934;4.668;2022-10-26T01:48:07;8.43;;;3.07;;
21601;SDS011;10963;50.934;4.668;2022-10-26T01:50:37;10.90;;;3.20;;
21601;SDS011;10963;50.934;4.668;2022-10-26T01:53:04;9.47;;;3.10;;
21601;SDS011;10963;50.934;4.668;2022-10-26T02:01:11;8.53;;;2.73;;
21601;SDS011;10963;50.934;4.668;2022-10-26T02:09:33;11.67;;;2.90;;
21601;SDS011;10963;50.934;4.668;2022-10-26T02:12:00;9.23;;;2.60;;
21601;SDS011;10963;50.934;4.668;2022-10-26T02:14:40;6.03;;;2.77;;
21601;SDS011;10963;50.934;4.668;2022-10-26T02:17:16;7.77;;;2.63;;
21601;SDS011;10963;50.934;4.668;2022-10-26T02:20:34;6.83;;;2.43;;
21601;SDS011;10963;50.934;4.668;2022-10-26T02:23:05;4.70;;;2.67;;
21601;SDS011;10963;50.934;4.668;2022-10-26T02:25:32;6.43;;;2.60;;
21601;SDS011;10963;50.934;4.668;2022-10-26T02:28:06;5.53;;;2.50;;
21601;SDS011;10963;50.934;4.668;2022-10-26T02:30:38;6.30;;;2.30;;
21601;SDS011;10963;50.934;4.668;2022-10-26T02:33:08;8.47;;;2.60;;
21601;SDS011;10963;50.934;4.668;2022-10-26T02:35:36;9.00;;;2.90;;
21601;SDS011;10963;50.934;4.668;2022-10-26T02:38:07;4.53;;;2.40;;
21601;SDS011;10963;50.934;4.668;2022-10-26T02:40:39;9.33;;;3.00;;
21601;SDS011;10963;50.934;4.668;2022-10-26T02:43:13;5.23;;;2.83;;
21601;SDS011;10963;50.934;4.668;2022-10-26T02:45:47;7.50;;;3.13;;
21601;SDS011;10963;50.934;4.668;2022-10-26T02:48:16;8.00;;;2.63;;
21601;SDS011;10963;50.934;4.668;2022-10-26T02:56:17;5.97;;;2.57;;
21601;SDS011;10963;50.934;4.668;2022-10-26T02:59:05;7.67;;;2.57;;
21601;SDS011;10963;50.934;4.668;2022-10-26T03:01:33;4.47;;;2.47;;
21601;SDS011;10963;50.934;4.668;2022-10-26T03:04:00;5.40;;;2.47;;
21601;SDS011;10963;50.934;4.668;2022-10-26T03:06:28;6.60;;;2.33;;
21601;SDS011;10963;50.934;4.668;2022-10-26T03:08:53;5.90;;;2.60;;
21601;SDS011;10963;50.934;4.668;2022-10-26T03:11:24;4.67;;;2.33;;
21601;SDS011;10963;50.934;4.668;2022-10-26T03:13:52;5.87;;;2.70;;
21601;SDS011;10963;50.934;4.668;2022-10-26T03:16:19;6.03;;;2.30;;
21601;SDS011;10963;50.934;4.668;2022-10-26T03:18:44;6.77;;;2.60;;
21601;SDS011;10963;50.934;4.668;2022-10-26T03:21:10;9.90;;;2.00;;
21601;SDS011;10963;50.934;4.668;2022-10-26T03:23:42;4.93;;;2.30;;
21601;SDS011;10963;50.934;4.668;2022-10-26T03:26:10;4.40;;;2.33;;
21601;SDS011;10963;50.934;4.668;2022-10-26T03:28:40;8.20;;;2.90;;
21601;SDS011;10963;50.934;4.668;2022-10-26T03:31:06;4.20;;;2.63;;
21601;SDS011;10963;50.934;4.668;2022-10-26T03:33:35;5.27;;;2.30;;
21601;SDS011;10963;50.934;4.668;2022-10-26T03:36:00;6.63;;;2.13;;
21601;SDS011;10963;50.934;4.668;2022-10-26T03:38:26;6.70;;;2.23;;
21601;SDS011;10963;50.934;4.668;2022-10-26T03:40:54;5.53;;;2.27;;
21601;SDS011;10963;50.934;4.668;2022-10-26T03:43:25;4.93;;;1.90;;
21601;SDS011;10963;50.934;4.668;2022-10-26T03:45:51;3.37;;;1.93;;
21601;SDS011;10963;50.934;4.668;2022-10-26T03:48:17;3.17;;;1.50;;
21601;SDS011;10963;50.934;4.668;2022-10-26T03:50:42;3.47;;;1.83;;
21601;SDS011;10963;50.934;4.668;2022-10-26T03:53:08;9.57;;;1.70;;
21601;SDS011;10963;50.934;4.668;2022-10-26T03:55:34;2.43;;;1.80;;
21601;SDS011;10963;50.934;4.668;2022-10-26T03:58:02;5.43;;;1.73;;
21601;SDS011;10963;50.934;4.668;2022-10-26T04:00:28;4.27;;;2.10;;
21601;SDS011;10963;50.934;4.668;2022-10-26T04:02:57;2.03;;;1.83;;
21601;SDS011;10963;50.934;4.668;2022-10-26T04:05:25;5.57;;;1.80;;
21601;SDS011;10963;50.934;4.668;2022-10-26T04:07:54;4.37;;;2.20;;
21601;SDS011;10963;50.934;4.668;2022-10-26T04:10:22;3.23;;;1.70;;
21601;SDS011;10963;50.934;4.668;2022-10-26T04:12:54;11.23;;;2.27;;
21601;SDS011;10963;50.934;4.668;2022-10-26T04:15:24;7.30;;;1.90;;
21601;SDS011;10963;50.934;4.668;2022-10-26T04:17:56;4.10;;;1.87;;
21601;SDS011;10963;50.934;4.668;2022-10-26T04:20:26;4.47;;;1.60;;
21601;SDS011;10963;50.934;4.668;2022-10-26T04:22:59;3.93;;;1.30;;
21601;SDS011;10963;50.934;4.668;2022-10-26T04:25:27;4.97;;;1.70;;
21601;SDS011;10963;50.934;4.668;2022-10-26T04:27:54;3.07;;;1.60;;
21601;SDS011;10963;50.934;4.668;2022-10-26T04:30:20;5.67;;;1.53;;
21601;SDS011;10963;50.934;4.668;2022-10-26T04:32:48;3.83;;;2.23;;
21601;SDS011;10963;50.934;4.668;2022-10-26T04:35:16;3.73;;;1.50;;
21601;SDS011;10963;50.934;4.668;2022-10-26T04:37:45;6.33;;;1.80;;
21601;SDS011;10963;50.934;4.668;2022-10-26T04:40:15;3.83;;;1.67;;
21601;SDS011;10963;50.934;4.668;2022-10-26T04:42:43;2.07;;;1.67;;
21601;SDS011;10963;50.934;4.668;2022-10-26T04:45:11;3.60;;;1.80;;
21601;SDS011;10963;50.934;4.668;2022-10-26T04:47:38;3.50;;;1.97;;
21601;SDS011;10963;50.934;4.668;2022-10-26T04:50:07;4.53;;;2.00;;
21601;SDS011;10963;50.934;4.668;2022-10-26T04:52:34;3.33;;;1.67;;
21601;SDS011;10963;50.934;4.668;2022-10-26T04:55:03;2.40;;;1.60;;
21601;SDS011;10963;50.934;4.668;2022-10-26T04:57:33;5.43;;;2.03;;
21601;SDS011;10963;50.934;4.668;2022-10-26T04:59:59;4.53;;;2.00;;
21601;SDS011;10963;50.934;4.668;2022-10-26T05:02:29;3.77;;;1.90;;
21601;SDS011;10963;50.934;4.668;2022-10-26T05:05:00;3.43;;;2.00;;
21601;SDS011;10963;50.934;4.668;2022-10-26T05:07:26;3.30;;;1.83;;
21601;SDS011;10963;50.934;4.668;2022-10-26T05:09:54;6.23;;;2.10;;
21601;SDS011;10963;50.934;4.668;2022-10-26T05:12:24;5.47;;;2.33;;
21601;SDS011;10963;50.934;4.668;2022-10-26T05:14:51;5.43;;;2.40;;
21601;SDS011;10963;50.934;4.668;2022-10-26T05:17:23;5.33;;;2.43;;
21601;SDS011;10963;50.934;4.668;2022-10-26T05:19:49;6.50;;;2.10;;
21601;SDS011;10963;50.934;4.668;2022-10-26T05:22:21;6.97;;;2.00;;
21601;SDS011;10963;50.934;4.668;2022-10-26T05:24:49;2.50;;;1.83;;
21601;SDS011;10963;50.934;4.668;2022-10-26T05:27:20;3.47;;;2.03;;
21601;SDS011;10963;50.934;4.668;2022-10-26T05:29:46;7.13;;;2.20;;
21601;SDS011;10963;50.934;4.668;2022-10-26T05:32:14;6.10;;;2.27;;
21601;SDS011;10963;50.934;4.668;2022-10-26T05:34:42;6.57;;;2.17;;
21601;SDS011;10963;50.934;4.668;2022-10-26T05:37:13;7.87;;;2.37;;
21601;SDS011;10963;50.934;4.668;2022-10-26T05:39:41;7.13;;;2.50;;
21601;SDS011;10963;50.934;4.668;2022-10-26T05:42:08;3.60;;;2.17;;
21601;SDS011;10963;50.934;4.668;2022-10-26T05:44:37;5.40;;;2.20;;
21601;SDS011;10963;50.934;4.668;2022-10-26T05:47:02;4.50;;;2.30;;
21601;SDS011;10963;50.934;4.668;2022-10-26T05:49:30;3.23;;;2.37;;
21601;SDS011;10963;50.934;4.668;2022-10-26T05:51:58;4.33;;;2.20;;
21601;SDS011;10963;50.934;4.668;2022-10-26T05:54:26;5.43;;;2.13;;
21601;SDS011;10963;50.934;4.668;2022-10-26T05:56:54;8.83;;;2.20;;
21601;SDS011;10963;50.934;4.668;2022-10-26T05:59:22;3.53;;;2.17;;
21601;SDS011;10963;50.934;4.668;2022-10-26T06:04:30;4.30;;;1.90;;
21601;SDS011;10963;50.934;4.668;2022-10-26T06:06:57;5.60;;;1.97;;
21601;SDS011;10963;50.934;4.668;2022-10-26T06:09:24;6.87;;;2.20;;
21601;SDS011;10963;50.934;4.668;2022-10-26T06:11:49;4.67;;;2.27;;
21601;SDS011;10963;50.934;4.668;2022-10-26T06:14:15;4.77;;;2.60;;
21601;SDS011;10963;50.934;4.668;2022-10-26T06:22:27;6.57;;;2.13;;
21601;SDS011;10963;50.934;4.668;2022-10-26T06:24:59;3.17;;;2.20;;
21601;SDS011;10963;50.934;4.668;2022-10-26T06:30:15;4.57;;;2.50;;
21601;SDS011;10963;50.934;4.668;2022-10-26T06:32:47;6.97;;;3.10;;
21601;SDS011;10963;50.934;4.668;2022-10-26T06:37:55;4.77;;;3.10;;
21601;SDS011;10963;50.934;4.668;2022-10-26T06:40:26;6.33;;;3.50;;
21601;SDS011;10963;50.934;4.668;2022-10-26T06:42:59;10.77;;;6.47;;
21601;SDS011;10963;50.934;4.668;2022-10-26T06:45:25;32.47;;;17.57;;
21601;SDS011;10963;50.934;4.668;2022-10-26T06:47:56;12.10;;;6.50;;
21601;SDS011;10963;50.934;4.668;2022-10-26T06:56:01;6.03;;;2.60;;
21601;SDS011;10963;50.934;4.668;2022-10-26T06:58:33;9.50;;;3.97;;
21601;SDS011;10963;50.934;4.668;2022-10-26T07:01:02;8.73;;;3.57;;
21601;SDS011;10963;50.934;4.668;2022-10-26T07:03:28;6.97;;;4.30;;
21601;SDS011;10963;50.934;4.668;2022-10-26T07:06:00;11.83;;;4.63;;
21601;SDS011;10963;50.934;4.668;2022-10-26T07:08:29;6.00;;;3.20;;
21601;SDS011;10963;50.934;4.668;2022-10-26T07:10:56;12.97;;;3.57;;
21601;SDS011;10963;50.934;4.668;2022-10-26T07:13:24;14.40;;;10.07;;
21601;SDS011;10963;50.934;4.668;2022-10-26T07:15:50;5.00;;;2.77;;
21601;SDS011;10963;50.934;4.668;2022-10-26T07:18:15;9.40;;;3.20;;
21601;SDS011;10963;50.934;4.668;2022-10-26T07:20:41;5.73;;;2.90;;
21601;SDS011;10963;50.934;4.668;2022-10-26T07:23:08;8.37;;;2.80;;
21601;SDS011;10963;50.934;4.668;2022-10-26T07:25:37;10.17;;;3.30;;
21601;SDS011;10963;50.934;4.668;2022-10-26T07:28:06;6.43;;;2.77;;
21601;SDS011;10963;50.934;4.668;2022-10-26T07:30:34;7.23;;;2.90;;
21601;SDS011;10963;50.934;4.668;2022-10-26T07:33:02;7.53;;;2.73;;
21601;SDS011;10963;50.934;4.668;2022-10-26T07:35:32;5.67;;;2.70;;
21601;SDS011;10963;50.934;4.668;2022-10-26T07:38:00;4.60;;;2.67;;
21601;SDS011;10963;50.934;4.668;2022-10-26T07:40:29;5.47;;;2.30;;
21601;SDS011;10963;50.934;4.668;2022-10-26T07:42:58;7.03;;;2.80;;
21601;SDS011;10963;50.934;4.668;2022-10-26T07:45:28;7.50;;;3.00;;
21601;SDS011;10963;50.934;4.668;2022-10-26T07:47:56;11.33;;;2.93;;
21601;SDS011;10963;50.934;4.668;2022-10-26T07:50:24;5.43;;;2.73;;
21601;SDS011;10963;50.934;4.668;2022-10-26T07:52:54;8.17;;;2.83;;
21601;SDS011;10963;50.934;4.668;2022-10-26T07:55:23;6.47;;;2.53;;
21601;SDS011;10963;50.934;4.668;2022-10-26T07:57:48;6.70;;;3.30;;
21601;SDS011;10963;50.934;4.668;2022-10-26T08:00:14;6.37;;;2.80;;
21601;SDS011;10963;50.934;4.668;2022-10-26T08:02:43;9.97;;;3.73;;
21601;SDS011;10963;50.934;4.668;2022-10-26T08:05:11;9.40;;;3.10;;
21601;SDS011;10963;50.934;4.668;2022-10-26T08:07:45;5.27;;;3.20;;
21601;SDS011;10963;50.934;4.668;2022-10-26T08:10:12;7.60;;;3.30;;
21601;SDS011;10963;50.934;4.668;2022-10-26T08:12:38;5.43;;;3.20;;
21601;SDS011;10963;50.934;4.668;2022-10-26T08:15:04;6.97;;;3.37;;
21601;SDS011;10963;50.934;4.668;2022-10-26T08:17:33;7.33;;;2.50;;
21601;SDS011;10963;50.934;4.668;2022-10-26T08:19:58;7.53;;;2.87;;
21601;SDS011;10963;50.934;4.668;2022-10-26T08:22:24;9.17;;;3.10;;
21601;SDS011;10963;50.934;4.668;2022-10-26T08:24:56;8.03;;;3.20;;
21601;SDS011;10963;50.934;4.668;2022-10-26T08:27:22;8.33;;;2.60;;
21601;SDS011;10963;50.934;4.668;2022-10-26T08:29:52;8.27;;;2.93;;
21601;SDS011;10963;50.934;4.668;2022-10-26T08:32:18;8.40;;;3.20;;
21601;SDS011;10963;50.934;4.668;2022-10-26T08:34:46;8.00;;;2.57;;
21601;SDS011;10963;50.934;4.668;2022-10-26T08:37:14;6.90;;;2.20;;
21601;SDS011;10963;50.934;4.668;2022-10-26T08:39:44;5.63;;;2.43;;
21601;SDS011;10963;50.934;4.668;2022-10-26T08:44:47;5.13;;;2.70;;
21601;SDS011;10963;50.934;4.668;2022-10-26T08:47:22;6.13;;;2.40;;
21601;SDS011;10963;50.934;4.668;2022-10-26T08:50:07;5.77;;;2.50;;
21601;SDS011;10963;50.934;4.668;2022-10-26T08:52:41;5.63;;;2.27;;
21601;SDS011;10963;50.934;4.668;2022-10-26T08:55:18;6.97;;;2.60;;
21601;SDS011;10963;50.934;4.668;2022-10-26T08:57:52;6.57;;;2.57;;
21601;SDS011;10963;50.934;4.668;2022-10-26T09:00:22;6.53;;;2.10;;
21601;SDS011;10963;50.934;4.668;2022-10-26T09:02:50;6.73;;;2.27;;
21601;SDS011;10963;50.934;4.668;2022-10-26T09:05:20;16.07;;;3.30;;
21601;SDS011;10963;50.934;4.668;2022-10-26T09:07:54;4.23;;;1.93;;
21601;SDS011;10963;50.934;4.668;2022-10-26T09:10:39;4.10;;;1.60;;
21601;SDS011;10963;50.934;4.668;2022-10-26T09:13:20;6.67;;;1.93;;
21601;SDS011;10963;50.934;4.668;2022-10-26T09:16:01;6.07;;;1.90;;
21601;SDS011;10963;50.934;4.668;2022-10-26T09:18:52;4.47;;;2.17;;
21601;SDS011;10963;50.934;4.668;2022-10-26T09:27:31;6.27;;;1.67;;
21601;SDS011;10963;50.934;4.668;2022-10-26T09:29:58;6.50;;;2.17;;
21601;SDS011;10963;50.934;4.668;2022-10-26T09:32:44;5.93;;;1.60;;
21601;SDS011;10963;50.934;4.668;2022-10-26T09:37:45;5.30;;;1.93;;
21601;SDS011;10963;50.934;4.668;2022-10-26T09:40:35;4.50;;;1.93;;
21601;SDS011;10963;50.934;4.668;2022-10-26T09:43:30;4.33;;;1.47;;
21601;SDS011;10963;50.934;4.668;2022-10-26T09:46:20;3.30;;;1.70;;
21601;SDS011;10963;50.934;4.668;2022-10-26T09:49:11;5.97;;;1.73;;
21601;SDS011;10963;50.934;4.668;2022-10-26T09:51:42;3.47;;;1.40;;
21601;SDS011;10963;50.934;4.668;2022-10-26T09:54:13;5.87;;;1.60;;
21601;SDS011;10963;50.934;4.668;2022-10-26T09:56:43;5.23;;;1.87;;
21601;SDS011;10963;50.934;4.668;2022-10-26T09:59:13;4.90;;;1.60;;
21601;SDS011;10963;50.934;4.668;2022-10-26T10:01:44;3.20;;;1.53;;
21601;SDS011;10963;50.934;4.668;2022-10-26T10:06:41;5.50;;;1.57;;
21601;SDS011;10963;50.934;4.668;2022-10-26T10:09:22;6.30;;;1.57;;
21601;SDS011;10963;50.934;4.668;2022-10-26T10:14:23;6.40;;;1.83;;
21601;SDS011;10963;50.934;4.668;2022-10-26T10:19:28;3.43;;;1.50;;
21601;SDS011;10963;50.934;4.668;2022-10-26T10:21:59;6.93;;;2.13;;
21601;SDS011;10963;50.934;4.668;2022-10-26T10:27:23;8.27;;;1.80;;
21601;SDS011;10963;50.934;4.668;2022-10-26T10:29:50;10.37;;;1.93;;
21601;SDS011;10963;50.934;4.668;2022-10-26T10:32:23;4.80;;;1.93;;
21601;SDS011;10963;50.934;4.668;2022-10-26T10:34:57;5.97;;;1.70;;
21601;SDS011;10963;50.934;4.668;2022-10-26T10:40:39;6.10;;;1.40;;
21601;SDS011;10963;50.934;4.668;2022-10-26T10:42:45;4.57;;;1.33;;
21601;SDS011;10963;50.934;4.668;2022-10-26T10:45:23;5.67;;;1.87;;
21601;SDS011;10963;50.934;4.668;2022-10-26T10:50:51;3.37;;;1.70;;
21601;SDS011;10963;50.934;4.668;2022-10-26T10:53:35;5.80;;;1.77;;
21601;SDS011;10963;50.934;4.668;2022-10-26T10:58:56;7.80;;;2.03;;
21601;SDS011;10963;50.934;4.668;2022-10-26T11:01:25;2.57;;;1.50;;
21601;SDS011;10963;50.934;4.668;2022-10-26T11:04:03;2.77;;;1.53;;
21601;SDS011;10963;50.934;4.668;2022-10-26T11:06:38;2.97;;;1.50;;
21601;SDS011;10963;50.934;4.668;2022-10-26T11:09:07;7.67;;;2.53;;
21601;SDS011;10963;50.934;4.668;2022-10-26T11:11:42;8.70;;;1.80;;
21601;SDS011;10963;50.934;4.668;2022-10-26T11:14:24;3.60;;;1.80;;
21601;SDS011;10963;50.934;4.668;2022-10-26T11:17:08;6.17;;;2.30;;
21601;SDS011;10963;50.934;4.668;2022-10-26T11:22:26;8.37;;;1.67;;
21601;SDS011;10963;50.934;4.668;2022-10-26T11:25:24;7.20;;;1.90;;
21601;SDS011;10963;50.934;4.668;2022-10-26T11:27:59;4.43;;;1.60;;
21601;SDS011;10963;50.934;4.668;2022-10-26T11:30:39;2.30;;;1.60;;
21601;SDS011;10963;50.934;4.668;2022-10-26T11:33:18;4.17;;;1.50;;
21601;SDS011;10963;50.934;4.668;2022-10-26T11:35:55;4.67;;;1.67;;
21601;SDS011;10963;50.934;4.668;2022-10-26T11:41:24;4.13;;;1.43;;
21601;SDS011;10963;50.934;4.668;2022-10-26T11:47:18;4.80;;;1.57;;
21601;SDS011;10963;50.934;4.668;2022-10-26T11:49:42;3.27;;;1.40;;
21601;SDS011;10963;50.934;4.668;2022-10-26T11:55:03;4.70;;;1.37;;
21601;SDS011;10963;50.934;4.668;2022-10-26T11:57:33;5.07;;;1.40;;
21601;SDS011;10963;50.934;4.668;2022-10-26T12:02:40;5.03;;;1.43;;
21601;SDS011;10963;50.934;4.668;2022-10-26T12:05:10;2.10;;;1.50;;
21601;SDS011;10963;50.934;4.668;2022-10-26T12:07:48;5.20;;;1.43;;
21601;SDS011;10963;50.934;4.668;2022-10-26T12:10:24;3.53;;;1.37;;
21601;SDS011;10963;50.934;4.668;2022-10-26T12:13:13;8.80;;;1.57;;
21601;SDS011;10963;50.934;4.668;2022-10-26T12:15:44;5.53;;;1.40;;
21601;SDS011;10963;50.934;4.668;2022-10-26T12:18:12;3.43;;;1.47;;
21601;SDS011;10963;50.934;4.668;2022-10-26T12:23:27;2.87;;;1.30;;
21601;SDS011;10963;50.934;4.668;2022-10-26T12:26:48;5.10;;;1.50;;
21601;SDS011;10963;50.934;4.668;2022-10-26T12:29:11;3.80;;;1.00;;
21601;SDS011;10963;50.934;4.668;2022-10-26T12:34:13;1.90;;;1.30;;
21601;SDS011;10963;50.934;4.668;2022-10-26T12:47:05;3.73;;;1.60;;
21601;SDS011;10963;50.934;4.668;2022-10-26T12:52:29;7.73;;;1.60;;
21601;SDS011;10963;50.934;4.668;2022-10-26T13:00:31;6.77;;;1.40;;
21601;SDS011;10963;50.934;4.668;2022-10-26T13:08:51;3.97;;;1.23;;
21601;SDS011;10963;50.934;4.668;2022-10-26T13:14:04;1.90;;;1.40;;
21601;SDS011;10963;50.934;4.668;2022-10-26T13:16:45;5.77;;;1.30;;
21601;SDS011;10963;50.934;4.668;2022-10-26T13:21:59;4.97;;;1.30;;
21601;SDS011;10963;50.934;4.668;2022-10-26T13:24:28;5.67;;;1.50;;
21601;SDS011;10963;50.934;4.668;2022-10-26T13:32:29;3.93;;;1.40;;
21601;SDS011;10963;50.934;4.668;2022-10-26T13:34:57;4.37;;;1.30;;
21601;SDS011;10963;50.934;4.668;2022-10-26T13:37:28;5.83;;;1.27;;
21601;SDS011;10963;50.934;4.668;2022-10-26T13:39:59;4.90;;;1.53;;
21601;SDS011;10963;50.934;4.668;2022-10-26T13:42:43;1.97;;;1.20;;
21601;SDS011;10963;50.934;4.668;2022-10-26T13:45:24;4.73;;;1.40;;
21601;SDS011;10963;50.934;4.668;2022-10-26T13:48:02;4.67;;;1.53;;
21601;SDS011;10963;50.934;4.668;2022-10-26T13:50:46;5.13;;;1.50;;
21601;SDS011;10963;50.934;4.668;2022-10-26T13:53:24;4.80;;;1.37;;
21601;SDS011;10963;50.934;4.668;2022-10-26T13:56:08;2.63;;;1.17;;
21601;SDS011;10963;50.934;4.668;2022-10-26T13:58:49;4.73;;;1.80;;
21601;SDS011;10963;50.934;4.668;2022-10-26T14:01:22;5.20;;;1.47;;
21601;SDS011;10963;50.934;4.668;2022-10-26T14:03:52;5.83;;;1.40;;
21601;SDS011;10963;50.934;4.668;2022-10-26T14:06:23;5.13;;;1.20;;
21601;SDS011;10963;50.934;4.668;2022-10-26T14:08:55;2.20;;;1.20;;
21601;SDS011;10963;50.934;4.668;2022-10-26T14:11:39;3.93;;;1.37;;
21601;SDS011;10963;50.934;4.668;2022-10-26T14:14:16;3.37;;;1.40;;
21601;SDS011;10963;50.934;4.668;2022-10-26T14:16:48;2.17;;;1.27;;
21601;SDS011;10963;50.934;4.668;2022-10-26T14:21:51;8.20;;;1.77;;
21601;SDS011;10963;50.934;4.668;2022-10-26T14:24:36;5.03;;;1.20;;
21601;SDS011;10963;50.934;4.668;2022-10-26T14:27:13;3.63;;;1.20;;
21601;SDS011;10963;50.934;4.668;2022-10-26T14:29:41;4.47;;;1.10;;
21601;SDS011;10963;50.934;4.668;2022-10-26T14:35:09;6.47;;;1.23;;
21601;SDS011;10963;50.934;4.668;2022-10-26T14:40:17;2.50;;;1.20;;
21601;SDS011;10963;50.934;4.668;2022-10-26T14:42:53;3.17;;;1.23;;
21601;SDS011;10963;50.934;4.668;2022-10-26T14:45:28;6.60;;;1.63;;
21601;SDS011;10963;50.934;4.668;2022-10-26T14:47:58;6.77;;;1.63;;
21601;SDS011;10963;50.934;4.668;2022-10-26T14:50:28;2.87;;;1.30;;
21601;SDS011;10963;50.934;4.668;2022-10-26T14:53:13;8.43;;;1.63;;
21601;SDS011;10963;50.934;4.668;2022-10-26T14:55:52;3.13;;;1.40;;
21601;SDS011;10963;50.934;4.668;2022-10-26T14:58:28;4.37;;;1.50;;
21601;SDS011;10963;50.934;4.668;2022-10-26T15:03:57;3.63;;;1.27;;
21601;SDS011;10963;50.934;4.668;2022-10-26T15:06:32;4.47;;;1.30;;
21601;SDS011;10963;50.934;4.668;2022-10-26T15:09:02;5.43;;;1.63;;
21601;SDS011;10963;50.934;4.668;2022-10-26T15:11:32;2.63;;;1.33;;
21601;SDS011;10963;50.934;4.668;2022-10-26T15:13:59;5.13;;;1.60;;
21601;SDS011;10963;50.934;4.668;2022-10-26T15:16:26;3.53;;;1.20;;
21601;SDS011;10963;50.934;4.668;2022-10-26T15:18:58;5.30;;;1.30;;
21601;SDS011;10963;50.934;4.668;2022-10-26T15:21:36;4.40;;;1.43;;
21601;SDS011;10963;50.934;4.668;2022-10-26T15:24:29;7.63;;;1.50;;
21601;SDS011;10963;50.934;4.668;2022-10-26T15:27:11;5.10;;;1.97;;
21601;SDS011;10963;50.934;4.668;2022-10-26T15:32:24;3.87;;;1.30;;
21601;SDS011;10963;50.934;4.668;2022-10-26T15:37:51;2.83;;;1.37;;
21601;SDS011;10963;50.934;4.668;2022-10-26T15:40:20;6.53;;;1.67;;
21601;SDS011;10963;50.934;4.668;2022-10-26T15:42:48;7.63;;;1.43;;
21601;SDS011;10963;50.934;4.668;2022-10-26T15:45:23;4.07;;;1.33;;
21601;SDS011;10963;50.934;4.668;2022-10-26T15:47:53;5.60;;;1.40;;
21601;SDS011;10963;50.934;4.668;2022-10-26T15:50:24;4.53;;;1.63;;
21601;SDS011;10963;50.934;4.668;2022-10-26T15:52:55;2.53;;;1.20;;
21601;SDS011;10963;50.934;4.668;2022-10-26T15:55:27;7.57;;;1.40;;
21601;SDS011;10963;50.934;4.668;2022-10-26T15:57:54;5.47;;;1.90;;
21601;SDS011;10963;50.934;4.668;2022-10-26T16:00:19;2.97;;;1.30;;
21601;SDS011;10963;50.934;4.668;2022-10-26T16:02:48;5.17;;;1.40;;
21601;SDS011;10963;50.934;4.668;2022-10-26T16:05:15;9.03;;;1.57;;
21601;SDS011;10963;50.934;4.668;2022-10-26T16:07:42;5.93;;;1.87;;
21601;SDS011;10963;50.934;4.668;2022-10-26T16:10:15;3.80;;;1.10;;
21601;SDS011;10963;50.934;4.668;2022-10-26T16:12:48;4.63;;;1.50;;
21601;SDS011;10963;50.934;4.668;2022-10-26T16:15:19;4.93;;;1.77;;
21601;SDS011;10963;50.934;4.668;2022-10-26T16:17:46;9.33;;;1.30;;
21601;SDS011;10963;50.934;4.668;2022-10-26T16:20:18;9.20;;;1.60;;
21601;SDS011;10963;50.934;4.668;2022-10-26T16:22:49;5.03;;;1.67;;
21601;SDS011;10963;50.934;4.668;2022-10-26T16:25:22;3.33;;;1.53;;
21601;SDS011;10963;50.934;4.668;2022-10-26T16:27:49;5.23;;;1.40;;
21601;SDS011;10963;50.934;4.668;2022-10-26T16:30:16;7.57;;;1.50;;
21601;SDS011;10963;50.934;4.668;2022-10-26T16:32:42;4.17;;;1.20;;
21601;SDS011;10963;50.934;4.668;2022-10-26T16:35:10;4.03;;;1.40;;
21601;SDS011;10963;50.934;4.668;2022-10-26T16:37:37;5.17;;;1.40;;
21601;SDS011;10963;50.934;4.668;2022-10-26T16:40:03;2.63;;;1.20;;
21601;SDS011;10963;50.934;4.668;2022-10-26T16:42:30;4.27;;;1.77;;
21601;SDS011;10963;50.934;4.668;2022-10-26T16:44:57;6.13;;;1.27;;
21601;SDS011;10963;50.934;4.668;2022-10-26T16:47:22;7.70;;;1.70;;
21601;SDS011;10963;50.934;4.668;2022-10-26T16:49:48;9.83;;;1.60;;
21601;SDS011;10963;50.934;4.668;2022-10-26T16:52:16;4.57;;;1.77;;
21601;SDS011;10963;50.934;4.668;2022-10-26T16:54:42;9.30;;;2.77;;
21601;SDS011;10963;50.934;4.668;2022-10-26T16:57:08;5.07;;;1.60;;
21601;SDS011;10963;50.934;4.668;2022-10-26T16:59:34;6.93;;;1.50;;
21601;SDS011;10963;50.934;4.668;2022-10-26T17:02:04;7.83;;;3.30;;
21601;SDS011;10963;50.934;4.668;2022-10-26T17:04:30;11.03;;;6.53;;
21601;SDS011;10963;50.934;4.668;2022-10-26T17:06:58;9.43;;;4.70;;
21601;SDS011;10963;50.934;4.668;2022-10-26T17:09:23;7.53;;;6.30;;
21601;SDS011;10963;50.934;4.668;2022-10-26T17:11:52;7.60;;;4.73;;
21601;SDS011;10963;50.934;4.668;2022-10-26T17:14:18;10.33;;;5.90;;
21601;SDS011;10963;50.934;4.668;2022-10-26T17:16:46;8.37;;;3.87;;
21601;SDS011;10963;50.934;4.668;2022-10-26T17:19:12;6.83;;;3.30;;
21601;SDS011;10963;50.934;4.668;2022-10-26T17:21:37;9.67;;;2.87;;
21601;SDS011;10963;50.934;4.668;2022-10-26T17:24:08;11.30;;;3.23;;
21601;SDS011;10963;50.934;4.668;2022-10-26T17:26:37;7.13;;;2.43;;
21601;SDS011;10963;50.934;4.668;2022-10-26T17:29:04;4.87;;;2.30;;
21601;SDS011;10963;50.934;4.668;2022-10-26T17:31:32;7.30;;;3.60;;
21601;SDS011;10963;50.934;4.668;2022-10-26T17:33:57;18.00;;;12.40;;
21601;SDS011;10963;50.934;4.668;2022-10-26T17:36:30;22.10;;;17.77;;
21601;SDS011;10963;50.934;4.668;2022-10-26T17:38:56;28.20;;;19.60;;
21601;SDS011;10963;50.934;4.668;2022-10-26T17:41:22;15.10;;;8.83;;
21601;SDS011;10963;50.934;4.668;2022-10-26T17:43:48;9.10;;;4.43;;
21601;SDS011;10963;50.934;4.668;2022-10-26T17:46:15;7.53;;;3.43;;